Time;durP1;ratioP1;P1;durP2;ratioP2;P2;SDS_P1;SDS_P2;PMS_P1;PMS_P2;Temp;Humidity;BMP_temperature;BMP_pressure;BME280_temperature;BME280_humidity;BME280_pressure;Samples;Min_cycle;Max_cycle;Signal;HPM_P1;HPM_P2
2022/03/14 00:02:50;;;;;;;27.27;12.98;;;12.70;53.30;;;;;;6255761;28;20513;-81
2022/03/14 00:05:51;;;;;;;25.17;12.18;;;12.70;53.90;;;;;;6253986;28;20049;-82
2022/03/14 00:08:57;;;;;;;23.85;11.88;;;12.60;54.80;;;;;;6256374;28;20514;-82
2022/03/14 00:11:59;;;;;;;26.15;10.57;;;12.60;56.60;;;;;;6257261;28;20053;-81
2022/03/14 00:15:01;;;;;;;17.10;9.02;;;12.60;60.00;;;;;;6256199;28;20081;-82
2022/03/14 00:18:05;;;;;;;15.77;8.93;;;12.60;63.40;;;;;;6255590;28;20042;-82
2022/03/14 00:21:07;;;;;;;14.77;7.95;;;12.60;66.00;;;;;;6255919;28;20512;-81
2022/03/14 00:24:11;;;;;;;16.83;8.18;;;12.60;69.10;;;;;;6254441;28;20100;-82
2022/03/14 00:27:13;;;;;;;12.38;6.97;;;12.60;72.30;;;;;;6257737;28;20053;-82
2022/03/14 00:30:15;;;;;;;12.57;6.53;;;12.60;74.70;;;;;;6257798;28;20041;-82
2022/03/14 00:33:18;;;;;;;10.25;5.68;;;12.60;76.00;;;;;;6263729;28;20097;-81
2022/03/14 00:36:20;;;;;;;6.13;3.15;;;12.60;76.20;;;;;;6271957;28;20072;-80
2022/03/14 00:39:22;;;;;;;5.00;2.40;;;12.60;76.00;;;;;;6262759;28;20041;-81
2022/03/14 00:42:25;;;;;;;3.00;2.08;;;12.50;75.60;;;;;;6259379;28;20175;-80
2022/03/14 00:45:26;;;;;;;3.33;1.83;;;12.50;75.60;;;;;;6259153;28;20107;-81
2022/03/14 00:48:32;;;;;;;3.22;1.95;;;12.50;75.60;;;;;;6259719;28;20049;-81
2022/03/14 00:51:35;;;;;;;7.15;1.80;;;12.50;76.40;;;;;;6258004;28;20125;-81
2022/03/14 00:54:37;;;;;;;2.17;1.33;;;12.50;77.90;;;;;;6256896;28;20049;-81
2022/03/14 00:57:39;;;;;;;4.00;1.27;;;12.40;79.30;;;;;;6264362;28;20095;-82
2022/03/14 01:00:41;;;;;;;2.72;1.35;;;12.20;80.30;;;;;;6281290;28;20109;-80
2022/03/14 01:03:44;;;;;;;2.08;1.17;;;12.20;81.50;;;;;;6281081;28;20465;-81
2022/03/14 01:06:46;;;;;;;2.20;1.23;;;12.10;82.30;;;;;;6281301;28;20108;-81
2022/03/14 01:09:47;;;;;;;3.00;1.65;;;11.90;82.80;;;;;;6281455;28;20052;-81
2022/03/14 01:12:49;;;;;;;3.00;1.20;;;11.80;84.60;;;;;;6281658;28;20048;-82
2022/03/14 01:15:51;;;;;;;3.17;0.95;;;11.60;86.10;;;;;;6248714;28;20054;-82
2022/03/14 01:18:55;;;;;;;4.32;1.73;;;11.50;87.60;;;;;;6256147;28;20045;-82
2022/03/14 01:21:57;;;;;;;3.85;1.02;;;11.30;88.30;;;;;;6255208;28;20109;-82
2022/03/14 01:24:58;;;;;;;3.28;2.35;;;11.10;89.90;;;;;;6255175;28;20061;-82
2022/03/14 01:28:01;;;;;;;3.58;0.77;;;10.90;91.00;;;;;;6255105;28;20048;-82
2022/03/14 01:31:04;;;;;;;1.63;0.88;;;10.70;93.40;;;;;;6255751;28;20139;-81
2022/03/14 01:34:08;;;;;;;1.95;1.00;;;10.60;95.00;;;;;;6254999;28;20065;-80
2022/03/14 01:37:10;;;;;;;2.13;1.00;;;10.50;95.10;;;;;;6255005;28;20418;-81
2022/03/14 01:40:13;;;;;;;2.35;1.00;;;10.40;95.30;;;;;;6254282;28;20073;-82
2022/03/14 01:43:16;;;;;;;3.10;0.73;;;10.30;95.70;;;;;;6254397;28;20049;-81
2022/03/14 01:46:18;;;;;;;1.88;1.02;;;10.30;96.30;;;;;;6253463;28;20056;-82
2022/03/14 01:49:22;;;;;;;1.88;0.93;;;10.20;96.50;;;;;;6254191;28;20055;-81
2022/03/14 01:52:24;;;;;;;1.52;0.65;;;10.20;96.50;;;;;;6253266;28;20057;-81
2022/03/14 01:55:25;;;;;;;0.88;0.60;;;10.10;96.70;;;;;;6249591;28;20041;-81
2022/03/14 01:58:28;;;;;;;0.98;0.50;;;10.10;97.00;;;;;;6248458;28;20048;-80
2022/03/14 02:01:30;;;;;;;5.55;0.68;;;10.00;97.30;;;;;;6253836;28;20049;-81
2022/03/14 02:04:33;;;;;;;1.23;0.55;;;10.00;97.40;;;;;;6253259;28;20515;-81
2022/03/14 02:07:35;;;;;;;3.45;0.65;;;10.00;97.40;;;;;;6253113;28;20045;-80
2022/03/14 02:10:38;;;;;;;0.82;0.25;;;10.00;97.60;;;;;;6253544;28;20049;-80
2022/03/14 02:13:40;;;;;;;1.40;0.30;;;10.00;97.70;;;;;;6253088;28;20045;-80
2022/03/14 02:16:41;;;;;;;1.15;0.40;;;10.10;97.70;;;;;;6253847;28;20076;-80
2022/03/14 02:19:45;;;;;;;0.95;0.52;;;10.10;97.60;;;;;;6254069;28;20218;-79
2022/03/14 02:22:48;;;;;;;1.10;0.28;;;10.00;97.70;;;;;;6253955;28;20460;-81
2022/03/14 02:25:50;;;;;;;3.28;0.52;;;10.00;97.60;;;;;;6252011;28;20089;-80
2022/03/14 02:28:52;;;;;;;1.45;0.45;;;10.00;98.20;;;;;;6252011;28;20477;-81
2022/03/14 02:31:54;;;;;;;1.17;0.40;;;10.00;98.10;;;;;;6251870;28;20055;-80
2022/03/14 02:34:56;;;;;;;1.05;0.40;;;10.00;98.20;;;;;;6253024;28;20045;-80
2022/03/14 02:37:59;;;;;;;2.00;0.43;;;10.00;98.00;;;;;;6250935;28;20435;-79
2022/03/14 02:41:01;;;;;;;1.27;0.55;;;9.90;98.00;;;;;;6252086;28;20041;-81
2022/03/14 02:44:06;;;;;;;1.23;0.38;;;10.00;98.00;;;;;;6252715;28;20132;-82
2022/03/14 02:47:08;;;;;;;0.75;0.50;;;10.00;97.90;;;;;;6251293;28;20510;-81
2022/03/14 02:50:10;;;;;;;1.08;0.38;;;10.00;98.00;;;;;;6250243;28;20049;-81
2022/03/14 02:53:13;;;;;;;1.23;0.32;;;10.10;98.00;;;;;;6252077;28;20053;-81
2022/03/14 02:56:15;;;;;;;0.55;0.32;;;10.10;98.00;;;;;;6250328;28;20053;-81
2022/03/14 02:59:17;;;;;;;5.07;0.77;;;10.10;98.40;;;;;;6255762;28;20053;-80
2022/03/14 03:02:19;;;;;;;3.30;0.30;;;10.10;98.30;;;;;;6256542;28;20175;-81
2022/03/14 03:05:21;;;;;;;1.23;0.60;;;10.10;98.30;;;;;;6254304;28;20049;-81
2022/03/14 03:08:24;;;;;;;1.08;0.47;;;10.10;98.30;;;;;;6254054;28;20510;-80
2022/03/14 03:11:26;;;;;;;2.70;0.50;;;10.10;98.20;;;;;;6253813;28;20113;-81
2022/03/14 03:14:30;;;;;;;1.70;0.57;;;10.10;98.40;;;;;;6253689;28;20073;-81
2022/03/14 03:17:32;;;;;;;1.33;0.60;;;10.00;98.40;;;;;;6256437;28;20049;-81
2022/03/14 03:20:33;;;;;;;0.80;0.52;;;10.00;98.20;;;;;;6258863;28;20530;-80
2022/03/14 03:23:37;;;;;;;1.00;0.63;;;9.90;98.50;;;;;;6249566;28;20037;-82
2022/03/14 03:26:39;;;;;;;2.17;0.75;;;10.00;98.50;;;;;;6258343;28;20064;-82
2022/03/14 03:29:41;;;;;;;3.80;1.00;;;10.00;98.20;;;;;;6257806;28;20534;-81
2022/03/14 03:32:43;;;;;;;3.15;1.40;;;10.00;98.00;;;;;;6256813;28;20051;-82
2022/03/14 03:35:45;;;;;;;2.53;1.25;;;10.00;98.00;;;;;;6255272;28;20048;-82
2022/03/14 03:38:48;;;;;;;1.65;1.23;;;10.00;97.90;;;;;;6256853;28;20512;-80
2022/03/14 03:41:49;;;;;;;2.67;1.23;;;10.00;98.00;;;;;;6256017;28;20052;-81
2022/03/14 03:44:51;;;;;;;1.17;0.70;;;9.90;97.90;;;;;;6255858;28;20414;-81
2022/03/14 03:47:53;;;;;;;1.88;1.00;;;9.90;97.90;;;;;;6255403;28;20508;-82
2022/03/14 03:50:55;;;;;;;2.60;1.10;;;9.90;97.90;;;;;;6256197;28;20060;-81
2022/03/14 03:53:58;;;;;;;2.47;0.98;;;9.80;97.90;;;;;;6254868;28;20499;-80
2022/03/14 03:57:00;;;;;;;2.95;1.25;;;9.80;97.70;;;;;;6254865;28;20064;-82
2022/03/14 04:00:02;;;;;;;1.85;0.70;;;9.70;97.60;;;;;;6255802;28;20049;-82
2022/03/14 04:03:04;;;;;;;2.63;1.05;;;9.60;98.00;;;;;;6275997;28;20097;-80
2022/03/14 04:06:06;;;;;;;2.08;0.93;;;9.50;97.90;;;;;;6270162;28;20132;-82
2022/03/14 04:09:10;;;;;;;1.38;0.88;;;9.60;98.00;;;;;;6258038;28;20526;-82
2022/03/14 04:12:12;;;;;;;1.58;1.02;;;9.60;98.10;;;;;;6257447;28;20052;-82
2022/03/14 04:15:15;;;;;;;2.53;0.90;;;9.60;98.10;;;;;;6257026;28;20517;-82
2022/03/14 04:18:18;;;;;;;1.08;0.73;;;9.60;97.90;;;;;;6256674;28;20046;-82
2022/03/14 04:21:20;;;;;;;1.25;0.55;;;9.60;97.80;;;;;;6257064;28;20510;-81
2022/03/14 04:24:24;;;;;;;1.75;0.80;;;9.60;97.70;;;;;;6255676;28;20423;-81
2022/03/14 04:27:26;;;;;;;3.72;0.50;;;9.60;97.80;;;;;;6255852;28;20704;-82
2022/03/14 04:30:28;;;;;;;1.50;0.63;;;9.50;97.80;;;;;;6256996;28;20050;-80
2022/03/14 04:33:30;;;;;;;1.55;0.70;;;9.50;97.50;;;;;;6260003;28;20061;-82
2022/03/14 04:36:32;;;;;;;1.05;0.45;;;9.50;97.80;;;;;;6257127;28;20049;-82
2022/03/14 04:39:35;;;;;;;1.45;0.40;;;9.50;97.60;;;;;;6257040;28;20140;-82
2022/03/14 04:42:37;;;;;;;1.63;0.63;;;9.50;97.70;;;;;;6256964;28;20049;-81
2022/03/14 04:45:40;;;;;;;0.70;0.30;;;9.50;97.60;;;;;;6255490;28;20103;-82
2022/03/14 04:48:42;;;;;;;0.93;0.50;;;9.50;97.50;;;;;;6255966;28;20502;-81
2022/03/14 04:51:44;;;;;;;3.00;0.68;;;9.50;97.60;;;;;;6254993;28;20125;-81
2022/03/14 04:54:47;;;;;;;1.45;0.52;;;9.50;97.50;;;;;;6255057;28;20521;-81
2022/03/14 04:57:48;;;;;;;1.35;0.80;;;9.50;97.50;;;;;;6255206;28;20384;-81
2022/03/14 05:00:50;;;;;;;0.98;0.52;;;9.50;97.60;;;;;;6254726;28;20073;-82
2022/03/14 05:03:52;;;;;;;2.67;0.70;;;9.50;97.40;;;;;;6253878;28;20072;-81
2022/03/14 05:06:54;;;;;;;0.95;0.57;;;9.40;97.30;;;;;;6254293;28;20155;-81
2022/03/14 05:09:57;;;;;;;1.73;0.82;;;9.40;97.40;;;;;;6253861;28;20045;-81
2022/03/14 05:13:00;;;;;;;2.30;0.80;;;9.40;97.30;;;;;;6253668;28;20109;-81
2022/03/14 05:16:01;;;;;;;6.70;1.02;;;9.50;97.30;;;;;;6254488;28;20048;-81
2022/03/14 05:19:04;;;;;;;1.52;0.52;;;9.50;97.20;;;;;;6254097;28;20050;-82
2022/03/14 05:22:06;;;;;;;1.15;0.43;;;9.50;97.10;;;;;;6252431;28;20056;-80
2022/03/14 05:25:10;;;;;;;5.30;0.80;;;9.50;96.90;;;;;;6252493;28;20171;-81
2022/03/14 05:28:12;;;;;;;5.82;1.27;;;9.50;97.00;;;;;;6252940;28;20290;-81
2022/03/14 05:31:13;;;;;;;5.60;1.48;;;9.60;96.90;;;;;;6253241;28;20487;-82
2022/03/14 05:34:15;;;;;;;1.30;0.50;;;9.60;96.70;;;;;;6252577;28;20125;-82
2022/03/14 05:37:17;;;;;;;2.45;0.77;;;9.60;96.60;;;;;;6251999;28;20056;-81
2022/03/14 05:40:21;;;;;;;1.27;0.77;;;9.50;96.50;;;;;;6249496;28;20525;-81
2022/03/14 05:43:44;;;;;;;3.75;0.50;;;9.50;96.60;;;;;;6251313;28;20458;-82
2022/03/14 05:46:48;;;;;;;2.60;0.90;;;9.60;96.70;;;;;;6252284;28;20045;-82
2022/03/14 05:49:50;;;;;;;6.45;0.90;;;9.70;96.50;;;;;;6251768;28;20045;-81
2022/03/14 05:52:51;;;;;;;2.45;0.80;;;9.70;96.40;;;;;;6251040;28;20160;-82
2022/03/14 05:55:57;;;;;;;5.90;0.75;;;9.70;96.80;;;;;;6251484;28;20049;-83
2022/03/14 05:59:00;;;;;;;1.02;0.50;;;9.70;96.70;;;;;;6253062;28;20050;-81
2022/03/14 06:02:02;;;;;;;1.35;0.70;;;9.70;96.10;;;;;;6251335;28;20427;-83
2022/03/14 06:05:04;;;;;;;3.15;0.63;;;9.70;96.30;;;;;;6252010;28;20073;-81
2022/03/14 06:08:06;;;;;;;10.23;2.03;;;9.70;96.30;;;;;;6251520;28;20069;-82
2022/03/14 06:11:09;;;;;;;3.00;1.63;;;9.70;96.30;;;;;;6251413;28;20048;-82
2022/03/14 06:14:11;;;;;;;3.63;0.82;;;9.70;96.30;;;;;;6251473;28;20041;-83
2022/03/14 06:17:13;;;;;;;2.42;0.68;;;9.70;96.30;;;;;;6250918;28;20045;-83
2022/03/14 06:20:16;;;;;;;7.25;1.02;;;9.70;96.30;;;;;;6251955;28;20041;-82
2022/03/14 06:23:18;;;;;;;2.45;0.80;;;9.70;96.20;;;;;;6251150;28;20441;-81
2022/03/14 06:26:21;;;;;;;1.90;1.08;;;9.70;96.30;;;;;;6250747;28;20050;-80
2022/03/14 06:29:23;;;;;;;8.63;1.33;;;9.70;95.80;;;;;;6251320;28;20067;-83
2022/03/14 06:32:25;;;;;;;3.78;0.70;;;9.70;96.40;;;;;;6250876;28;20128;-82
2022/03/14 06:35:28;;;;;;;6.47;1.23;;;9.70;97.20;;;;;;6249974;28;20112;-83
2022/03/14 06:38:31;;;;;;;4.22;1.00;;;9.90;97.50;;;;;;6250585;28;20462;-82
2022/03/14 06:41:35;;;;;;;3.33;0.80;;;10.00;97.60;;;;;;6250561;28;20041;-83
2022/03/14 06:44:39;;;;;;;2.42;0.98;;;10.20;97.60;;;;;;6250873;28;20042;-83
2022/03/14 06:58:28;;;;;;;6.07;1.45;;;10.20;97.30;;;;;;6208053;28;20049;-84
2022/03/14 07:22:03;;;;;;;9.55;1.23;;;10.80;97.90;;;;;;6148531;28;20126;-83
2022/03/14 07:56:05;;;;;;;2.45;0.30;;;10.80;95.10;;;;;;6175983;28;20133;-81
2022/03/14 08:30:04;;;;;;;2.75;0.45;;;14.40;85.90;;;;;;6215786;28;20050;-81
2022/03/14 08:33:28;;;;;;;2.95;1.33;;;14.70;82.80;;;;;;6240691;28;20073;-82
2022/03/14 08:37:01;;;;;;;3.85;0.43;;;14.90;79.60;;;;;;6251059;28;20047;-81
2022/03/14 08:40:05;;;;;;;1.67;0.50;;;15.10;81.90;;;;;;6250203;28;20075;-80
2022/03/14 08:47:21;;;;;;;2.10;0.52;;;16.00;79.70;;;;;;6258750;28;20057;-83
2022/03/14 08:54:24;;;;;;;2.65;0.55;;;18.20;70.10;;;;;;6232397;28;20053;-81
2022/03/14 08:57:35;;;;;;;4.38;0.60;;;19.10;65.00;;;;;;6263166;28;20037;-82
2022/03/14 09:00:40;;;;;;;2.75;0.45;;;20.00;62.40;;;;;;6280016;28;20061;-82
2022/03/14 09:03:50;;;;;;;0.90;0.30;;;20.70;57.20;;;;;;6280887;28;20049;-82
2022/03/14 09:07:05;;;;;;;1.70;0.28;;;21.10;55.60;;;;;;6280624;28;20118;-81
2022/03/14 09:10:20;;;;;;;2.85;0.68;;;20.80;53.50;;;;;;6278548;28;20536;-81
2022/03/14 09:13:27;;;;;;;1.00;0.45;;;20.50;54.60;;;;;;6279713;28;20061;-81
2022/03/14 09:16:29;;;;;;;2.70;0.80;;;20.70;55.50;;;;;;6275063;28;20052;-82
2022/03/14 09:19:49;;;;;;;5.25;0.55;;;20.80;55.80;;;;;;6240258;28;20133;-80
2022/03/14 09:22:53;;;;;;;4.32;0.70;;;21.00;56.30;;;;;;6246004;28;20061;-80
2022/03/14 09:26:00;;;;;;;4.38;0.90;;;20.90;55.30;;;;;;6256552;28;20116;-80
2022/03/14 09:29:09;;;;;;;3.27;0.60;;;21.00;53.30;;;;;;6239601;28;20064;-80
2022/03/14 09:32:13;;;;;;;3.30;0.80;;;20.60;54.90;;;;;;6211542;28;20060;-80
2022/03/14 09:35:16;;;;;;;5.63;0.40;;;19.80;52.90;;;;;;6244802;28;20491;-79
2022/03/14 09:38:19;;;;;;;4.13;0.77;;;19.40;55.90;;;;;;6250111;28;20045;-80
2022/03/14 09:41:24;;;;;;;0.80;0.30;;;19.20;54.40;;;;;;6252695;28;20049;-79
2022/03/14 09:44:30;;;;;;;1.55;0.45;;;18.70;55.00;;;;;;6252872;28;20041;-79
2022/03/14 09:47:37;;;;;;;8.15;1.00;;;18.30;56.10;;;;;;6252827;28;20063;-80
2022/03/14 09:50:42;;;;;;;2.80;0.60;;;17.90;57.30;;;;;;6254092;28;20057;-79
2022/03/14 09:53:45;;;;;;;4.88;0.60;;;17.80;59.40;;;;;;6251850;28;20045;-80
2022/03/14 09:56:49;;;;;;;3.90;0.93;;;17.90;59.40;;;;;;6252085;28;20060;-79
2022/03/14 09:59:53;;;;;;;5.25;0.60;;;18.00;57.80;;;;;;6252965;28;20053;-78
2022/03/14 10:02:56;;;;;;;8.15;1.50;;;18.00;57.40;;;;;;6253026;28;20064;-79
2022/03/14 10:05:59;;;;;;;1.30;0.60;;;18.00;57.40;;;;;;6250363;28;20115;-79
2022/03/14 10:09:02;;;;;;;4.50;0.60;;;18.10;55.90;;;;;;6250087;28;20053;-79
2022/03/14 10:12:07;;;;;;;2.53;0.47;;;18.00;56.30;;;;;;6252155;28;20041;-79
2022/03/14 10:15:10;;;;;;;4.75;0.70;;;18.10;56.00;;;;;;6252656;28;20053;-79
2022/03/14 10:18:15;;;;;;;2.88;1.02;;;18.10;56.80;;;;;;6251261;28;20050;-79
2022/03/14 10:21:31;;;;;;;2.47;0.50;;;18.60;58.80;;;;;;6251395;28;20041;-78
2022/03/14 10:24:34;;;;;;;2.35;0.63;;;19.20;58.10;;;;;;6249326;28;20050;-79
2022/03/14 10:27:39;;;;;;;2.80;0.50;;;19.40;53.90;;;;;;6250543;28;20049;-79
2022/03/14 10:30:48;;;;;;;1.85;0.65;;;19.40;52.40;;;;;;6252416;28;20049;-79
2022/03/14 10:33:52;;;;;;;4.60;0.73;;;19.30;53.60;;;;;;6250302;28;20061;-79
2022/03/14 10:36:57;;;;;;;2.20;0.85;;;19.60;53.20;;;;;;6249870;28;20157;-78
2022/03/14 10:40:05;;;;;;;1.67;0.43;;;19.60;52.70;;;;;;6250242;28;20531;-78
2022/03/14 10:43:21;;;;;;;3.90;0.77;;;19.40;51.90;;;;;;6252033;28;20140;-78
2022/03/14 10:46:27;;;;;;;6.07;0.60;;;19.00;53.60;;;;;;6251033;28;20065;-78
2022/03/14 10:49:30;;;;;;;7.43;0.60;;;19.10;55.30;;;;;;6251806;28;20056;-79
2022/03/14 10:52:32;;;;;;;2.70;0.60;;;19.30;54.10;;;;;;6251964;28;20053;-79
2022/03/14 10:55:36;;;;;;;1.95;0.60;;;19.10;52.50;;;;;;6250967;28;20129;-78
2022/03/14 10:58:39;;;;;;;3.67;0.63;;;18.70;53.30;;;;;;6252567;28;20049;-78
2022/03/14 11:01:59;;;;;;;3.05;0.95;;;18.40;56.20;;;;;;6254401;28;20123;-78
2022/03/14 11:05:02;;;;;;;5.22;0.88;;;18.10;56.60;;;;;;6254033;28;20063;-78
2022/03/14 11:08:31;;;;;;;4.70;0.82;;;17.70;56.20;;;;;;6252414;28;20134;-78
2022/03/14 11:11:38;;;;;;;5.32;0.85;;;17.40;60.20;;;;;;6251692;28;20108;-78
2022/03/14 11:14:41;;;;;;;5.65;1.45;;;17.40;59.80;;;;;;6251361;28;20705;-78
2022/03/14 11:17:44;;;;;;;1.67;0.65;;;17.90;58.90;;;;;;6250457;28;20057;-79
2022/03/14 11:20:46;;;;;;;7.63;1.33;;;18.50;57.70;;;;;;6251280;28;20124;-79
2022/03/14 11:23:50;;;;;;;2.70;0.50;;;18.40;54.70;;;;;;6251861;28;20064;-79
2022/03/14 11:26:53;;;;;;;1.83;0.65;;;18.10;56.70;;;;;;6250108;28;20139;-79
2022/03/14 11:30:02;;;;;;;6.20;0.70;;;18.00;54.50;;;;;;6250567;28;20129;-79
2022/03/14 11:33:04;;;;;;;2.92;0.65;;;18.00;54.70;;;;;;6250590;28;20499;-79
2022/03/14 11:36:07;;;;;;;2.33;0.45;;;18.20;56.10;;;;;;6250138;28;20422;-79
2022/03/14 11:39:10;;;;;;;3.78;0.80;;;18.80;51.00;;;;;;6255838;28;20053;-79
2022/03/14 11:42:15;;;;;;;4.50;0.70;;;19.10;53.40;;;;;;6259010;28;20049;-79
2022/03/14 11:45:18;;;;;;;4.15;0.40;;;19.40;53.70;;;;;;6257598;28;20072;-79
2022/03/14 11:48:21;;;;;;;4.35;0.63;;;19.50;49.80;;;;;;6256647;28;20507;-79
2022/03/14 11:51:37;;;;;;;3.40;0.38;;;19.60;49.10;;;;;;6255916;28;20055;-79
2022/03/14 11:54:41;;;;;;;1.15;0.38;;;19.60;48.40;;;;;;6256237;28;20045;-80
2022/03/14 11:57:44;;;;;;;4.72;0.70;;;19.50;47.80;;;;;;6256476;28;20057;-79
2022/03/14 12:00:49;;;;;;;1.77;0.28;;;19.90;47.40;;;;;;6256960;28;20150;-80
2022/03/14 12:03:53;;;;;;;3.92;0.80;;;20.10;47.70;;;;;;6255684;28;20128;-79
2022/03/14 12:07:09;;;;;;;3.55;0.30;;;20.30;45.70;;;;;;6256498;28;20132;-80
2022/03/14 12:10:27;;;;;;;2.58;0.63;;;20.40;46.00;;;;;;6255490;28;20046;-79
2022/03/14 12:13:42;;;;;;;7.00;1.00;;;20.40;43.60;;;;;;6254907;28;20538;-79
2022/03/14 12:16:46;;;;;;;2.05;0.40;;;20.30;45.50;;;;;;6252177;28;20434;-80
2022/03/14 12:19:49;;;;;;;3.80;0.68;;;20.10;43.80;;;;;;6256016;28;20045;-79
2022/03/14 12:22:51;;;;;;;5.30;0.73;;;19.80;46.40;;;;;;6256761;28;20129;-79
2022/03/14 12:29:35;;;;;;;3.58;0.43;;;19.70;46.50;;;;;;6279791;28;20499;-80
2022/03/14 12:32:56;;;;;;;5.18;1.33;;;19.20;47.50;;;;;;6280944;28;20183;-79
2022/03/14 12:35:58;;;;;;;6.03;0.85;;;19.10;46.20;;;;;;6252325;28;20054;-79
2022/03/14 12:39:28;;;;;;;1.30;0.47;;;18.80;46.00;;;;;;6254671;28;20053;-80
2022/03/14 12:42:39;;;;;;;5.90;1.00;;;18.50;48.20;;;;;;6255717;28;20101;-79
2022/03/14 12:45:43;;;;;;;6.35;1.00;;;18.30;47.40;;;;;;6254915;28;20111;-79
2022/03/14 12:48:53;;;;;;;4.65;0.50;;;18.40;46.90;;;;;;6240564;28;20133;-80
2022/03/14 12:52:13;;;;;;;2.80;0.68;;;18.70;47.90;;;;;;6229887;28;20052;-79
2022/03/14 12:55:22;;;;;;;3.75;0.52;;;19.30;46.90;;;;;;6230467;28;20050;-79
2022/03/14 12:58:27;;;;;;;5.65;1.25;;;19.90;45.10;;;;;;6230342;28;20491;-79
2022/03/14 13:01:30;;;;;;;4.03;1.60;;;20.60;42.80;;;;;;6229668;28;20531;-79
2022/03/14 13:04:34;;;;;;;16.48;7.75;;;20.70;42.00;;;;;;6230091;28;20204;-81
2022/03/14 13:07:36;;;;;;;4.78;1.00;;;20.90;42.10;;;;;;6232654;28;20419;-83
2022/03/14 13:10:39;;;;;;;6.78;2.30;;;21.30;40.70;;;;;;6231804;28;20102;-81
2022/03/14 13:13:41;;;;;;;3.50;0.73;;;21.60;40.30;;;;;;6230819;28;20052;-80
2022/03/14 13:16:43;;;;;;;7.97;3.13;;;21.90;40.30;;;;;;6229451;28;20042;-80
2022/03/14 13:19:46;;;;;;;3.47;1.75;;;22.20;39.50;;;;;;6229496;28;20045;-81
2022/03/14 13:22:48;;;;;;;10.60;2.13;;;22.50;38.30;;;;;;6232007;28;20057;-81
2022/03/14 13:25:52;;;;;;;26.63;5.45;;;22.70;38.80;;;;;;6230421;28;20100;-81
2022/03/14 13:28:55;;;;;;;10.77;1.17;;;23.00;37.80;;;;;;6229973;28;20091;-81
2022/03/14 13:31:59;;;;;;;2.58;0.55;;;23.30;37.50;;;;;;6230051;28;20360;-82
2022/03/14 13:35:07;;;;;;;5.15;0.57;;;23.60;36.80;;;;;;6231130;28;20049;-81
2022/03/14 13:38:09;;;;;;;4.80;0.60;;;23.80;35.60;;;;;;6229307;28;20124;-82
2022/03/14 13:41:13;;;;;;;4.25;0.50;;;24.00;35.90;;;;;;6229840;28;20046;-83
2022/03/14 13:44:17;;;;;;;3.05;0.47;;;24.30;35.30;;;;;;6229879;28;20054;-83
2022/03/14 13:47:23;;;;;;;5.60;0.55;;;24.50;34.40;;;;;;6228403;28;20121;-82
2022/03/14 13:50:26;;;;;;;5.07;0.80;;;24.50;34.10;;;;;;6229861;28;20049;-80
2022/03/14 13:53:28;;;;;;;5.35;2.35;;;24.80;34.10;;;;;;6229589;28;20419;-80
2022/03/14 13:56:33;;;;;;;14.63;4.43;;;25.00;32.90;;;;;;6229064;28;20044;-81
2022/03/14 13:59:36;;;;;;;5.13;2.50;;;25.10;32.60;;;;;;6228360;28;20046;-81
2022/03/14 14:02:38;;;;;;;8.82;3.42;;;25.00;32.20;;;;;;6228700;28;20050;-81
2022/03/14 14:05:41;;;;;;;5.00;2.17;;;25.00;32.70;;;;;;6226780;28;20050;-80
2022/03/14 14:08:43;;;;;;;7.78;3.63;;;24.70;32.70;;;;;;6233773;28;20164;-80
2022/03/14 14:12:14;;;;;;;5.07;3.17;;;24.50;33.20;;;;;;6230910;28;20522;-82
2022/03/14 14:15:15;;;;;;;5.50;1.75;;;24.30;33.00;;;;;;6216451;28;20139;-84
2022/03/14 14:18:18;;;;;;;4.47;2.42;;;24.20;33.60;;;;;;6232029;28;20038;-81
2022/03/14 14:21:24;;;;;;;5.07;2.72;;;23.90;33.70;;;;;;6230668;28;20056;-81
2022/03/14 14:27:50;;;;;;;5.00;1.98;;;23.30;33.50;;;;;;6234308;28;20514;-82
2022/03/14 14:30:53;;;;;;;4.65;2.05;;;23.20;34.10;;;;;;6265725;28;20080;-81
2022/03/14 14:33:54;;;;;;;4.93;1.00;;;23.00;34.20;;;;;;6251565;28;20523;-82
2022/03/14 14:37:00;;;;;;;2.50;0.40;;;22.70;34.60;;;;;;6228133;28;20045;-82
2022/03/14 14:40:03;;;;;;;2.53;0.28;;;22.40;34.50;;;;;;6230542;28;20113;-81
2022/03/14 14:43:05;;;;;;;4.43;1.00;;;22.40;34.70;;;;;;6229471;28;20056;-83
2022/03/14 14:46:07;;;;;;;28.20;17.42;;;22.60;34.90;;;;;;6227013;28;20045;-81
2022/03/14 14:49:09;;;;;;;34.75;23.52;;;22.80;34.50;;;;;;6227095;28;20050;-81
2022/03/14 14:52:12;;;;;;;3.88;2.35;;;22.80;34.40;;;;;;6225827;28;20049;-80
2022/03/14 14:55:14;;;;;;;11.35;9.00;;;22.80;34.50;;;;;;6224914;28;20514;-81
2022/03/14 14:58:19;;;;;;;11.15;6.78;;;22.90;34.90;;;;;;6224706;28;20582;-80
2022/03/14 15:01:21;;;;;;;4.00;1.85;;;23.10;34.60;;;;;;6224541;28;20412;-80
2022/03/14 15:04:22;;;;;;;2.65;0.57;;;23.30;34.40;;;;;;6224738;28;20519;-79
2022/03/14 15:07:26;;;;;;;2.97;0.82;;;23.40;34.20;;;;;;6225997;28;20046;-82
2022/03/14 15:10:29;;;;;;;3.05;0.30;;;23.30;33.80;;;;;;6227453;28;20076;-83
2022/03/14 15:13:30;;;;;;;6.15;0.60;;;23.30;33.60;;;;;;6224526;28;20478;-81
2022/03/14 15:16:32;;;;;;;1.25;0.40;;;23.20;34.10;;;;;;6222124;28;20046;-80
2022/03/14 15:19:34;;;;;;;4.65;2.05;;;23.10;34.00;;;;;;6222277;28;20232;-81
2022/03/14 15:22:37;;;;;;;8.40;0.85;;;23.10;34.00;;;;;;6223745;28;20387;-81
2022/03/14 15:25:39;;;;;;;1.30;0.50;;;23.00;34.10;;;;;;6222613;28;20048;-82
2022/03/14 15:28:41;;;;;;;1.45;0.30;;;22.90;34.30;;;;;;6218969;28;20042;-81
2022/03/14 15:31:43;;;;;;;2.92;0.38;;;22.70;34.30;;;;;;6208797;28;20049;-82
2022/03/14 15:34:45;;;;;;;5.78;0.90;;;22.40;34.60;;;;;;6197002;28;20062;-81
2022/03/14 15:37:49;;;;;;;1.52;0.55;;;22.00;35.40;;;;;;6196789;28;20046;-82
2022/03/14 15:40:51;;;;;;;5.35;0.40;;;21.70;35.70;;;;;;6214274;28;20159;-83
2022/03/14 15:43:53;;;;;;;1.77;0.32;;;21.20;36.50;;;;;;6222253;28;20108;-82
2022/03/14 15:46:58;;;;;;;3.35;0.60;;;20.90;37.10;;;;;;6221335;28;20050;-85
2022/03/14 15:50:01;;;;;;;2.03;0.52;;;20.50;38.30;;;;;;6222691;28;20419;-84
2022/03/14 15:53:04;;;;;;;1.30;0.38;;;20.10;39.00;;;;;;6221941;28;20128;-84
2022/03/14 15:56:06;;;;;;;1.92;0.50;;;19.70;40.10;;;;;;6221735;28;20069;-83
2022/03/14 15:59:08;;;;;;;4.13;1.63;;;19.40;41.40;;;;;;6222152;28;20414;-84
2022/03/14 16:02:10;;;;;;;55.90;36.95;;;19.10;41.50;;;;;;6238931;28;20104;-85
2022/03/14 16:05:14;;;;;;;20.40;14.43;;;18.80;41.70;;;;;;6224048;28;20050;-84
2022/03/14 16:08:20;;;;;;;9.43;4.65;;;18.60;42.40;;;;;;6222318;28;20140;-84
2022/03/14 16:11:22;;;;;;;5.90;3.60;;;18.40;42.90;;;;;;6223552;28;20050;-83
2022/03/14 16:14:24;;;;;;;3.60;2.75;;;18.10;43.30;;;;;;6165384;28;20060;-83
2022/03/14 16:17:26;;;;;;;4.63;2.03;;;18.00;44.00;;;;;;6222304;28;20042;-84
2022/03/14 16:20:28;;;;;;;3.80;1.38;;;17.80;44.40;;;;;;6223918;28;20249;-84
2022/03/14 16:23:32;;;;;;;2.00;0.65;;;17.60;44.60;;;;;;6225267;28;20081;-84
2022/03/14 16:26:35;;;;;;;2.95;1.13;;;17.40;45.20;;;;;;6228003;28;20096;-82
2022/03/14 16:29:37;;;;;;;8.05;2.05;;;17.20;45.30;;;;;;6229353;28;20069;-81
2022/03/14 16:32:39;;;;;;;5.88;1.38;;;17.00;45.70;;;;;;6232350;28;20078;-83
2022/03/14 16:35:41;;;;;;;4.65;1.02;;;16.90;46.30;;;;;;6231790;28;20046;-82
2022/03/14 16:38:45;;;;;;;2.92;0.60;;;16.80;47.00;;;;;;6230212;28;20077;-82
2022/03/14 16:41:47;;;;;;;3.75;0.63;;;16.60;47.50;;;;;;6230670;28;20049;-79
2022/03/14 16:44:49;;;;;;;1.30;0.45;;;16.50;47.50;;;;;;6235605;28;20053;-82
2022/03/14 16:47:52;;;;;;;2.95;0.60;;;16.40;47.80;;;;;;6230855;28;20053;-82
2022/03/14 16:50:54;;;;;;;4.07;0.68;;;16.20;48.10;;;;;;6230677;28;20046;-82
2022/03/14 16:53:58;;;;;;;2.97;0.70;;;16.10;48.30;;;;;;6231423;28;20046;-83
2022/03/14 16:57:00;;;;;;;1.88;0.40;;;15.90;48.90;;;;;;6229836;28;20057;-83
2022/03/14 17:00:03;;;;;;;3.08;0.50;;;15.80;49.00;;;;;;6230321;28;20045;-80
2022/03/14 17:03:05;;;;;;;3.00;0.70;;;15.60;49.40;;;;;;6229414;28;20098;-87
2022/03/14 17:06:09;;;;;;;2.50;0.88;;;15.60;50.40;;;;;;6229330;28;20046;-81
2022/03/14 17:09:13;;;;;;;38.05;4.80;;;15.40;51.00;;;;;;6231396;28;20689;-81
2022/03/14 17:12:15;;;;;;;2.95;1.25;;;15.40;51.80;;;;;;6229218;28;20049;-81
2022/03/14 17:15:17;;;;;;;2.92;0.50;;;15.20;52.30;;;;;;6229303;28;20531;-81
2022/03/14 17:18:20;;;;;;;1.48;0.38;;;14.90;52.90;;;;;;6229510;28;20419;-81
2022/03/14 17:21:22;;;;;;;6.40;1.30;;;14.70;53.70;;;;;;6229586;28;20045;-81
2022/03/14 17:24:25;;;;;;;5.28;1.50;;;14.50;54.10;;;;;;6229777;28;20048;-82
2022/03/14 17:27:27;;;;;;;3.22;1.02;;;14.40;56.10;;;;;;6229535;28;20106;-81
2022/03/14 17:30:31;;;;;;;4.70;0.60;;;14.30;58.30;;;;;;6229735;28;20172;-79
2022/03/14 17:33:33;;;;;;;4.03;1.13;;;14.20;58.50;;;;;;6228416;28;20046;-81
2022/03/14 17:36:36;;;;;;;3.63;1.48;;;14.10;60.40;;;;;;6228938;28;20046;-81
2022/03/14 17:39:42;;;;;;;9.23;2.42;;;13.90;62.10;;;;;;6229452;28;20085;-82
2022/03/14 17:42:44;;;;;;;9.20;3.58;;;13.80;63.60;;;;;;6213502;28;20046;-81
2022/03/14 17:45:47;;;;;;;5.07;1.85;;;13.80;67.70;;;;;;6227641;28;20054;-80
2022/03/14 17:48:48;;;;;;;8.20;1.42;;;13.80;65.40;;;;;;6228443;28;20160;-81